< Typhoon 201331 2014 Season Typhoon 201402 >
Typhoon 201401 (LINGLING)
General InformationTrack Information on Google MapsDetailed Wind InformationForecast History on Google MapsAccess Analytics MapList of All Images || NewsDisaster Info.WeblogTrackbackTyphoon FrontTwiphoonTyphoon Now!Typhoon ImaginationDisaster Info. XMLResourceGoogle EarthGE AnimationAtom FeedGeoJSON
Detalied Best Track (Time Zone = UTC)
Year Month Day Hour Lat. Long. Pressure (hPa) Wind (kt) Class Image Chart
2014 1 15 00 9.6 129.2 1006 0 2 Image Chart
2014 1 15 06 9.6 129.2 1004 0 2 Image Chart
2014 1 15 12 9.7 129.0 1008 0 2 Image Chart
2014 1 15 18 9.8 128.9 1006 0 2 Image Chart
2014 1 16 00 9.8 128.8 1008 0 2 Image Chart
2014 1 16 06 9.7 128.6 1004 0 2 Image Chart
2014 1 16 12 9.5 128.5 1004 0 2 Image Chart
2014 1 16 18 9.3 128.3 1004 0 2 Image Chart
2014 1 17 00 9.3 128.3 1004 0 2 Image Chart
2014 1 17 06 9.7 127.9 1002 0 2 Image Chart
2014 1 17 12 9.7 127.4 1006 0 2 Image Chart
2014 1 17 18 9.7 127.4 1006 0 2 Image Chart
2014 1 18 00 9.7 127.4 1004 35 3 Image Chart
2014 1 18 06 9.7 127.4 1002 35 3 Image Chart
2014 1 18 12 9.7 127.4 1004 35 3 Image Chart
2014 1 18 18 9.4 127.4 1004 35 3 Image Chart
2014 1 19 00 9.2 127.5 1006 35 3 Image Chart
2014 1 19 06 9.0 127.5 1004 35 3 Image Chart
2014 1 19 12 8.7 127.7 1006 35 3 Image Chart
2014 1 19 18 8.2 127.8 1006 35 3 Image Chart
2014 1 20 00 7.2 128.3 1008 0 2 Image Chart
2014 1 20 06 6.3 129.0 1004 0 2 Image Chart
Japan Meteorological Agency Best Track Data | Correction Date : 2014-02-17
< Typhoon 201331 2014 Season Typhoon 201402 >

Help